Time;durP1;ratioP1;P1;durP2;ratioP2;P2;SDS_P1;SDS_P2;PMS_P1;PMS_P2;Temp;Humidity;BMP_temperature;BMP_pressure;BME280_temperature;BME280_humidity;BME280_pressure;Samples;Min_cycle;Max_cycle;Signal;HPM_P1;HPM_P2
2022/10/01 00:00:59;;;;;;;5.13;4.10;;;11.30;99.90;;;;;;4972382;28;20027;-84
2022/10/01 00:03:28;;;;;;;5.22;4.38;;;11.30;99.90;;;;;;4981289;28;20026;-83
2022/10/01 00:05:59;;;;;;;7.18;4.68;;;11.30;99.90;;;;;;4972997;28;20031;-84
2022/10/01 00:08:26;;;;;;;5.63;4.53;;;11.20;99.90;;;;;;4975970;28;20019;-85
2022/10/01 00:10:52;;;;;;;5.97;5.30;;;11.20;99.90;;;;;;4977010;28;20019;-83
2022/10/01 00:13:19;;;;;;;5.97;5.13;;;11.20;99.90;;;;;;4976318;28;20019;-84
2022/10/01 00:15:46;;;;;;;5.32;4.40;;;11.20;99.90;;;;;;4975174;28;20035;-85
2022/10/01 00:18:13;;;;;;;7.70;4.72;;;11.20;99.90;;;;;;4975952;28;20434;-84
2022/10/01 00:20:42;;;;;;;7.22;4.28;;;11.20;99.90;;;;;;4976553;28;20039;-83
2022/10/01 00:23:14;;;;;;;7.63;4.53;;;11.20;99.90;;;;;;4975774;28;20062;-85
2022/10/01 00:25:41;;;;;;;6.75;5.50;;;11.20;99.90;;;;;;4959021;28;20144;-85
2022/10/01 00:28:07;;;;;;;5.00;4.25;;;11.20;99.90;;;;;;4975717;28;20014;-83
2022/10/01 00:30:33;;;;;;;7.57;5.30;;;11.20;99.90;;;;;;4969321;28;20023;-85
2022/10/01 00:32:59;;;;;;;6.70;4.43;;;11.20;99.90;;;;;;4975135;28;20030;-86
2022/10/01 00:35:24;;;;;;;6.35;5.00;;;11.20;99.90;;;;;;4973329;28;20029;-83
2022/10/01 00:37:51;;;;;;;10.35;5.70;;;11.10;99.90;;;;;;4973591;28;20014;-86
2022/10/01 00:40:20;;;;;;;7.47;5.40;;;11.10;99.90;;;;;;4973815;28;20023;-83
2022/10/01 00:42:47;;;;;;;5.68;4.47;;;11.10;99.90;;;;;;4974312;28;20026;-83
2022/10/01 00:45:15;;;;;;;5.53;4.30;;;11.10;99.90;;;;;;4958848;28;20348;-83
2022/10/01 00:47:57;;;;;;;5.57;4.45;;;11.10;99.90;;;;;;4973901;28;20023;-83
2022/10/01 00:50:36;;;;;;;5.78;4.72;;;11.10;99.90;;;;;;4975379;28;20058;-83
2022/10/01 00:53:10;;;;;;;6.70;4.75;;;11.10;99.90;;;;;;4975336;28;20105;-85
2022/10/01 00:55:50;;;;;;;5.90;4.53;;;11.10;99.90;;;;;;4974725;28;20471;-84
2022/10/01 00:58:18;;;;;;;5.32;4.35;;;11.10;99.90;;;;;;4973592;28;20050;-84
2022/10/01 01:00:44;;;;;;;5.30;3.88;;;11.20;99.90;;;;;;4972168;28;20042;-85
2022/10/01 01:03:10;;;;;;;4.82;3.47;;;11.10;99.90;;;;;;4990776;28;20027;-85
2022/10/01 01:05:36;;;;;;;5.70;4.40;;;11.20;99.90;;;;;;4975440;28;20027;-83
2022/10/01 01:08:02;;;;;;;5.28;4.30;;;11.20;99.90;;;;;;4975500;28;20029;-84
2022/10/01 01:10:56;;;;;;;6.35;4.78;;;11.20;99.90;;;;;;4975293;28;20361;-84
2022/10/01 01:13:51;;;;;;;7.05;5.32;;;11.20;99.90;;;;;;4948922;28;20031;-85
2022/10/01 01:16:37;;;;;;;6.18;5.13;;;11.20;99.90;;;;;;4961940;28;20479;-85
2022/10/01 01:19:24;;;;;;;7.50;5.10;;;11.20;99.90;;;;;;4968132;28;20410;-85
2022/10/01 01:21:59;;;;;;;9.07;5.82;;;11.20;99.90;;;;;;4975373;28;20019;-85
2022/10/01 01:24:34;;;;;;;8.05;6.65;;;11.10;99.90;;;;;;4975358;28;20366;-88
2022/10/01 01:27:15;;;;;;;9.82;5.93;;;11.10;99.90;;;;;;4975742;28;20089;-85
2022/10/01 01:29:52;;;;;;;8.43;5.93;;;11.00;99.90;;;;;;4977406;28;20019;-86
2022/10/01 01:32:25;;;;;;;9.85;7.40;;;11.00;99.90;;;;;;4997937;28;20066;-87
2022/10/01 01:34:54;;;;;;;6.75;5.70;;;11.10;99.90;;;;;;5004716;28;20107;-86
2022/10/01 01:37:25;;;;;;;6.93;5.43;;;11.10;99.90;;;;;;4999041;28;20033;-86
2022/10/01 01:39:54;;;;;;;8.90;5.88;;;11.10;99.90;;;;;;4964880;28;20089;-85
2022/10/01 01:42:36;;;;;;;6.45;5.18;;;11.10;99.90;;;;;;4977204;28;20031;-85
2022/10/01 01:45:08;;;;;;;7.65;5.90;;;11.10;99.90;;;;;;4949355;28;20022;-84
2022/10/01 01:47:35;;;;;;;7.07;5.70;;;11.00;99.90;;;;;;4975714;28;20418;-86
2022/10/01 01:50:06;;;;;;;7.07;4.88;;;11.10;99.90;;;;;;4975622;28;20023;-85
2022/10/01 01:52:32;;;;;;;7.38;5.10;;;11.00;99.90;;;;;;4974742;28;20015;-86
2022/10/01 01:54:58;;;;;;;5.97;4.25;;;11.10;99.90;;;;;;4976461;28;20026;-86
2022/10/01 01:57:25;;;;;;;4.97;3.90;;;11.10;99.90;;;;;;4958731;28;20170;-84
2022/10/01 01:59:52;;;;;;;5.18;3.75;;;11.10;99.90;;;;;;4991288;28;20039;-84
2022/10/01 02:02:24;;;;;;;4.88;2.92;;;11.20;99.90;;;;;;4974785;28;20023;-85
2022/10/01 02:04:58;;;;;;;4.68;3.10;;;11.20;99.90;;;;;;4974662;28;20038;-85
2022/10/01 02:08:00;;;;;;;4.05;3.30;;;11.20;99.90;;;;;;4974447;28;20026;-87
2022/10/01 02:10:29;;;;;;;4.57;3.22;;;11.20;99.90;;;;;;4978184;28;20019;-86
2022/10/01 02:13:24;;;;;;;4.97;4.25;;;11.20;99.90;;;;;;4987534;28;20459;-85
2022/10/01 02:15:54;;;;;;;4.70;3.22;;;11.20;99.90;;;;;;4964604;28;20130;-86
2022/10/01 02:18:47;;;;;;;5.50;3.55;;;11.10;99.90;;;;;;4976471;28;20062;-87
2022/10/01 02:21:43;;;;;;;4.38;3.40;;;11.10;99.90;;;;;;4980364;28;20015;-86
2022/10/01 02:24:27;;;;;;;5.80;3.55;;;11.10;99.90;;;;;;4977712;28;20055;-88
2022/10/01 02:26:55;;;;;;;5.45;3.50;;;11.10;99.90;;;;;;4985412;28;20016;-86
2022/10/01 02:29:22;;;;;;;3.90;2.80;;;11.10;99.90;;;;;;4974263;28;20029;-85
2022/10/01 02:31:54;;;;;;;7.53;3.38;;;11.10;99.90;;;;;;4974372;28;20022;-84
2022/10/01 02:34:26;;;;;;;4.35;2.90;;;11.10;99.90;;;;;;4974284;28;20030;-85
2022/10/01 02:36:53;;;;;;;4.85;3.65;;;11.10;99.90;;;;;;4974176;28;20089;-85
2022/10/01 02:39:22;;;;;;;3.28;2.58;;;11.20;99.90;;;;;;4961152;28;20370;-85
2022/10/01 02:41:50;;;;;;;4.05;2.70;;;11.10;99.90;;;;;;4974389;28;20025;-86
2022/10/01 02:44:30;;;;;;;3.67;2.47;;;11.20;99.90;;;;;;4975078;28;20034;-86
2022/10/01 02:46:56;;;;;;;4.53;2.33;;;11.20;99.90;;;;;;4973625;28;20042;-84
2022/10/01 02:49:23;;;;;;;3.70;2.60;;;11.20;99.90;;;;;;4975464;28;20014;-84
2022/10/01 02:51:52;;;;;;;5.82;2.40;;;11.20;99.90;;;;;;4975368;28;20030;-85
2022/10/01 02:54:54;;;;;;;3.40;2.30;;;11.20;99.90;;;;;;4973918;28;20030;-85
2022/10/01 02:57:26;;;;;;;3.65;2.70;;;11.20;99.90;;;;;;4966564;28;20046;-85
2022/10/01 02:59:56;;;;;;;3.10;2.35;;;11.20;99.90;;;;;;4973756;28;20019;-84
2022/10/01 03:02:26;;;;;;;3.00;2.05;;;11.20;99.90;;;;;;4958183;28;20026;-85
2022/10/01 03:04:53;;;;;;;3.15;1.90;;;11.20;99.90;;;;;;4975482;28;20022;-86
2022/10/01 03:07:20;;;;;;;3.03;2.30;;;11.20;99.90;;;;;;4977869;28;20026;-85
2022/10/01 03:09:45;;;;;;;2.78;2.00;;;11.20;99.90;;;;;;4977677;28;20026;-84
2022/10/01 03:12:11;;;;;;;2.70;1.70;;;11.20;99.90;;;;;;4977742;28;20084;-85
2022/10/01 03:14:40;;;;;;;2.47;1.73;;;11.20;99.90;;;;;;4977704;28;20042;-86
2022/10/01 03:17:07;;;;;;;2.80;1.55;;;11.20;99.90;;;;;;4961915;28;20098;-86
2022/10/01 03:19:32;;;;;;;1.80;1.45;;;11.20;99.90;;;;;;4977251;28;20033;-85
2022/10/01 03:21:58;;;;;;;1.92;1.38;;;11.30;99.90;;;;;;5009359;28;20023;-85
2022/10/01 03:24:24;;;;;;;1.70;1.50;;;11.30;99.90;;;;;;5001842;28;20038;-85
2022/10/01 03:26:50;;;;;;;2.28;1.58;;;11.30;99.90;;;;;;4994545;28;20019;-85
2022/10/01 03:29:16;;;;;;;1.80;1.30;;;11.30;99.90;;;;;;4985584;28;20328;-84
2022/10/01 03:31:42;;;;;;;1.90;1.48;;;11.30;99.90;;;;;;4979330;28;20049;-85
2022/10/01 03:34:08;;;;;;;2.78;1.58;;;11.30;99.90;;;;;;4979321;28;20106;-86
2022/10/01 03:36:34;;;;;;;1.80;1.50;;;11.30;99.90;;;;;;4978949;28;20038;-86
2022/10/01 03:38:59;;;;;;;2.42;1.90;;;11.30;99.90;;;;;;4965474;28;20030;-85
2022/10/01 03:41:25;;;;;;;1.42;1.23;;;11.30;99.90;;;;;;4977225;28;20366;-85
2022/10/01 03:43:51;;;;;;;1.98;1.48;;;11.30;99.90;;;;;;4977127;28;20019;-85
2022/10/01 03:46:17;;;;;;;1.90;1.30;;;11.30;99.90;;;;;;4977101;28;20370;-85
2022/10/01 03:48:43;;;;;;;1.25;1.10;;;11.40;99.90;;;;;;4977239;28;20015;-85
2022/10/01 03:51:08;;;;;;;1.50;1.30;;;11.40;99.90;;;;;;4977171;28;20031;-84
2022/10/01 03:53:34;;;;;;;2.42;1.25;;;11.40;99.90;;;;;;4961164;28;20030;-85
2022/10/01 03:56:00;;;;;;;1.55;1.20;;;11.40;99.90;;;;;;4977302;28;20045;-86
2022/10/01 03:58:26;;;;;;;1.48;1.30;;;11.40;99.90;;;;;;4976596;28;20039;-84
2022/10/01 04:00:54;;;;;;;1.92;1.40;;;11.40;99.90;;;;;;4976895;28;20093;-85
2022/10/01 04:03:20;;;;;;;1.70;1.40;;;11.40;99.90;;;;;;4976591;28;20031;-85
2022/10/01 04:05:46;;;;;;;1.52;1.30;;;11.40;99.90;;;;;;4976979;28;20031;-84
2022/10/01 04:08:13;;;;;;;2.05;1.42;;;11.50;99.90;;;;;;4976816;28;20069;-84
2022/10/01 04:10:40;;;;;;;1.65;1.25;;;11.50;99.90;;;;;;4977770;28;20102;-84
2022/10/01 04:13:08;;;;;;;1.45;1.15;;;11.50;99.90;;;;;;4976660;28;20034;-83
2022/10/01 04:15:34;;;;;;;1.63;1.30;;;11.50;99.90;;;;;;4976528;28;20034;-83
2022/10/01 04:18:05;;;;;;;1.35;1.15;;;11.50;99.90;;;;;;4978153;28;20141;-84
2022/10/01 04:20:32;;;;;;;1.50;1.15;;;11.60;99.90;;;;;;4976599;28;20065;-83
2022/10/01 04:22:58;;;;;;;1.95;1.23;;;11.60;99.90;;;;;;4960580;28;20370;-84
2022/10/01 04:25:24;;;;;;;1.60;1.40;;;11.60;99.90;;;;;;4976516;28;20023;-84
2022/10/01 04:28:10;;;;;;;2.30;1.55;;;11.70;99.90;;;;;;4944630;28;20043;-83
2022/10/01 04:30:38;;;;;;;1.70;1.30;;;11.70;99.90;;;;;;4976761;28;20015;-84
2022/10/01 04:33:08;;;;;;;1.65;1.20;;;11.70;99.90;;;;;;4979283;28;20534;-84
2022/10/01 04:35:33;;;;;;;1.48;1.23;;;11.70;99.90;;;;;;4964073;28;20039;-85
2022/10/01 04:38:11;;;;;;;2.72;1.50;;;11.70;99.90;;;;;;4982714;28;20087;-82
2022/10/01 04:40:38;;;;;;;1.73;1.25;;;11.70;99.90;;;;;;4995620;28;20023;-84
2022/10/01 04:43:08;;;;;;;1.88;1.40;;;11.80;99.90;;;;;;4960098;28;20451;-84
2022/10/01 04:45:35;;;;;;;3.45;1.30;;;11.80;99.90;;;;;;4976266;28;20031;-84
2022/10/01 04:48:02;;;;;;;2.03;1.60;;;11.80;99.90;;;;;;4976493;28;20029;-84
2022/10/01 04:50:28;;;;;;;1.65;1.20;;;11.80;99.90;;;;;;4976221;28;20019;-84
2022/10/01 04:52:54;;;;;;;2.38;1.40;;;11.90;99.90;;;;;;4975923;28;20019;-84
2022/10/01 04:55:21;;;;;;;2.15;1.50;;;11.90;99.90;;;;;;4975477;28;20425;-85
2022/10/01 04:57:48;;;;;;;2.53;1.52;;;11.90;99.90;;;;;;4975220;28;20092;-84
2022/10/01 05:00:16;;;;;;;2.17;1.55;;;11.90;99.90;;;;;;4976982;28;20014;-85
2022/10/01 05:02:47;;;;;;;1.85;1.30;;;12.00;99.90;;;;;;4975755;28;20438;-84
2022/10/01 05:05:14;;;;;;;3.38;1.98;;;12.00;99.90;;;;;;4975578;28;20170;-84
2022/10/01 05:07:40;;;;;;;2.13;1.40;;;12.00;99.90;;;;;;4975737;28;20026;-85
2022/10/01 05:10:13;;;;;;;1.95;1.52;;;12.00;99.90;;;;;;4975822;28;20450;-85
2022/10/01 05:12:40;;;;;;;1.85;1.60;;;12.00;99.90;;;;;;4975636;28;20026;-84
2022/10/01 05:15:09;;;;;;;2.17;1.70;;;12.10;99.90;;;;;;4983086;28;20027;-84
2022/10/01 05:17:35;;;;;;;2.25;1.80;;;12.10;99.90;;;;;;4999584;28;20011;-84
2022/10/01 05:20:05;;;;;;;2.47;1.27;;;12.10;99.90;;;;;;4987583;28;20374;-84
2022/10/01 05:22:30;;;;;;;1.70;1.17;;;12.10;99.90;;;;;;4976322;28;20112;-84
2022/10/01 05:24:59;;;;;;;1.60;1.40;;;12.10;99.90;;;;;;4976381;28;20058;-84
2022/10/01 05:27:29;;;;;;;2.05;1.48;;;12.10;99.90;;;;;;4975783;28;20022;-86
2022/10/01 05:29:55;;;;;;;2.65;1.75;;;12.10;99.90;;;;;;4992286;28;20027;-85
2022/10/01 05:32:21;;;;;;;2.05;1.75;;;12.10;99.90;;;;;;4991490;28;20406;-85
2022/10/01 05:34:47;;;;;;;2.50;1.90;;;12.10;99.90;;;;;;4975477;28;20031;-84
2022/10/01 05:37:13;;;;;;;2.35;1.50;;;12.10;99.90;;;;;;4976132;28;20019;-84
2022/10/01 05:39:44;;;;;;;3.10;1.55;;;12.20;99.90;;;;;;4962304;28;20384;-85
2022/10/01 05:42:10;;;;;;;1.88;1.40;;;12.20;99.90;;;;;;4976292;28;20489;-85
2022/10/01 05:44:44;;;;;;;1.40;1.30;;;12.20;99.90;;;;;;4974950;28;20041;-84
2022/10/01 05:47:12;;;;;;;2.42;1.50;;;12.20;99.90;;;;;;4975094;28;20121;-85
2022/10/01 05:49:43;;;;;;;3.38;2.00;;;12.20;99.90;;;;;;4975908;28;20022;-84
2022/10/01 05:52:14;;;;;;;2.97;2.10;;;12.30;99.90;;;;;;4959450;28;20367;-84
2022/10/01 05:54:40;;;;;;;2.42;2.00;;;12.30;99.90;;;;;;4974492;28;20062;-84
2022/10/01 05:57:06;;;;;;;2.10;1.80;;;12.30;99.90;;;;;;4974422;28;20043;-84
2022/10/01 05:59:35;;;;;;;1.90;1.70;;;12.30;99.90;;;;;;4975987;28;20023;-83
2022/10/01 06:02:02;;;;;;;2.33;2.00;;;12.30;99.90;;;;;;4974859;28;20027;-85
2022/10/01 06:04:28;;;;;;;2.38;2.00;;;12.30;99.90;;;;;;4974563;28;20027;-85
2022/10/01 06:06:55;;;;;;;2.80;2.35;;;12.40;99.90;;;;;;4974595;28;20026;-84
2022/10/01 06:09:22;;;;;;;3.55;2.35;;;12.30;99.90;;;;;;4974429;28;20031;-85
2022/10/01 06:11:48;;;;;;;3.53;2.80;;;12.40;99.90;;;;;;4958390;28;20023;-84
2022/10/01 06:14:14;;;;;;;2.85;2.55;;;12.40;99.90;;;;;;4975834;28;20505;-85
2022/10/01 06:16:40;;;;;;;3.75;2.85;;;12.40;99.90;;;;;;4973766;28;20034;-84
2022/10/01 06:19:06;;;;;;;4.22;3.70;;;12.50;99.90;;;;;;4975522;28;20133;-85
2022/10/01 06:21:32;;;;;;;5.20;3.60;;;12.50;99.90;;;;;;4974053;28;20413;-83
2022/10/01 06:23:58;;;;;;;4.72;3.72;;;12.50;99.90;;;;;;4973997;28;20018;-84
2022/10/01 06:26:24;;;;;;;4.32;3.08;;;12.50;99.90;;;;;;4974010;28;20030;-85
2022/10/01 06:28:50;;;;;;;4.03;3.50;;;12.60;99.90;;;;;;4974413;28;20014;-85
2022/10/01 06:31:20;;;;;;;4.45;3.42;;;12.60;99.90;;;;;;4974525;28;20027;-85
2022/10/01 06:33:45;;;;;;;6.93;4.90;;;12.60;99.90;;;;;;4987731;28;20440;-85
2022/10/01 06:36:11;;;;;;;7.75;5.40;;;12.60;99.90;;;;;;4975512;28;20423;-84
2022/10/01 06:38:37;;;;;;;4.88;4.38;;;12.60;99.90;;;;;;4964895;28;20471;-84
2022/10/01 06:41:04;;;;;;;5.18;4.63;;;12.70;99.90;;;;;;4970641;28;20019;-84
2022/10/01 06:43:30;;;;;;;6.15;5.55;;;12.70;99.90;;;;;;4974262;28;20027;-87
2022/10/01 06:46:01;;;;;;;6.25;5.65;;;12.70;99.90;;;;;;4975609;28;20031;-85
2022/10/01 06:48:30;;;;;;;6.28;5.68;;;12.80;99.90;;;;;;4974294;28;20030;-85
2022/10/01 06:50:57;;;;;;;6.30;5.70;;;12.80;99.90;;;;;;4975684;28;20019;-84
2022/10/01 06:53:25;;;;;;;6.45;5.60;;;12.80;99.90;;;;;;4980837;28;20060;-85
2022/10/01 06:55:51;;;;;;;6.55;5.53;;;12.80;99.90;;;;;;4983733;28;20027;-84
2022/10/01 06:58:21;;;;;;;7.60;6.80;;;12.90;99.90;;;;;;4974967;28;20074;-85
2022/10/01 07:00:48;;;;;;;8.27;6.95;;;13.00;99.90;;;;;;4975244;28;20035;-84
2022/10/01 07:03:16;;;;;;;8.88;7.97;;;13.00;99.90;;;;;;4991270;28;20045;-84
2022/10/01 07:05:43;;;;;;;9.40;8.50;;;13.10;99.90;;;;;;5001401;28;20088;-83
2022/10/01 07:08:09;;;;;;;9.35;8.45;;;13.20;99.90;;;;;;4995120;28;20030;-84
2022/10/01 07:10:36;;;;;;;7.60;6.53;;;13.20;99.90;;;;;;4997954;28;20018;-83
2022/10/01 07:13:16;;;;;;;7.78;6.97;;;13.20;99.90;;;;;;4990508;28;20541;-85
2022/10/01 07:15:42;;;;;;;8.57;7.78;;;13.20;99.90;;;;;;4975491;28;20031;-84
2022/10/01 07:18:08;;;;;;;8.70;7.80;;;13.30;99.90;;;;;;4976565;28;20053;-84
2022/10/01 07:20:38;;;;;;;8.80;7.97;;;13.30;99.90;;;;;;4974774;28;20068;-84
2022/10/01 07:23:11;;;;;;;9.18;8.27;;;13.30;99.90;;;;;;4973392;28;20027;-86
2022/10/01 07:25:39;;;;;;;10.30;9.30;;;13.50;99.90;;;;;;4972533;28;20021;-85
2022/10/01 07:28:07;;;;;;;10.18;9.18;;;13.60;99.90;;;;;;4971349;28;20038;-83
2022/10/01 07:30:33;;;;;;;9.13;8.23;;;13.70;99.90;;;;;;4971784;28;20118;-85
2022/10/01 07:32:59;;;;;;;9.85;8.85;;;13.70;99.90;;;;;;4972179;28;20030;-84
2022/10/01 07:35:25;;;;;;;8.85;8.05;;;13.80;99.90;;;;;;4972270;28;20170;-84
2022/10/01 07:37:52;;;;;;;10.38;9.48;;;13.80;99.90;;;;;;4971934;28;20090;-84
2022/10/01 07:40:18;;;;;;;10.80;8.88;;;13.90;99.90;;;;;;4956061;28;20015;-84
2022/10/01 07:42:55;;;;;;;10.18;8.70;;;13.90;99.90;;;;;;4972658;28;20110;-84
2022/10/01 07:45:24;;;;;;;9.73;8.82;;;14.00;99.90;;;;;;4972602;28;20030;-85
2022/10/01 07:47:55;;;;;;;9.18;8.23;;;14.10;99.90;;;;;;4972316;28;20362;-85
2022/10/01 07:50:22;;;;;;;13.90;10.95;;;14.10;99.90;;;;;;4972952;28;20027;-84
2022/10/01 07:52:55;;;;;;;11.10;9.90;;;14.10;99.90;;;;;;4975852;28;20392;-85
2022/10/01 07:55:22;;;;;;;10.55;9.45;;;14.10;99.90;;;;;;4976453;28;20489;-85
2022/10/01 07:57:56;;;;;;;9.48;8.50;;;14.20;99.90;;;;;;4959925;28;20042;-85
2022/10/01 08:00:24;;;;;;;11.40;10.13;;;14.30;99.90;;;;;;4975680;28;20025;-84
2022/10/01 08:02:54;;;;;;;10.23;9.13;;;14.50;99.90;;;;;;4976080;28;20034;-84
2022/10/01 08:05:24;;;;;;;8.88;8.02;;;14.50;99.90;;;;;;4972831;28;20070;-84
2022/10/01 08:07:50;;;;;;;10.40;9.25;;;14.60;99.90;;;;;;4977217;28;20019;-84
2022/10/01 08:10:18;;;;;;;10.43;9.40;;;14.80;99.90;;;;;;4972692;28;20469;-85
2022/10/01 08:12:45;;;;;;;11.25;9.52;;;14.80;99.90;;;;;;4976010;28;20478;-84
2022/10/01 08:15:15;;;;;;;12.02;10.80;;;14.80;99.90;;;;;;4976349;28;20121;-86
2022/10/01 08:17:41;;;;;;;11.50;10.40;;;14.80;99.90;;;;;;4974798;28;20130;-84
2022/10/01 08:20:09;;;;;;;11.35;10.23;;;14.70;99.90;;;;;;4976595;28;20019;-85
2022/10/01 08:22:35;;;;;;;12.68;11.45;;;14.60;99.90;;;;;;4975462;28;20031;-84
2022/10/01 08:25:01;;;;;;;12.77;11.52;;;14.50;99.90;;;;;;4971005;28;20085;-84
2022/10/01 08:27:29;;;;;;;12.95;10.93;;;14.40;99.90;;;;;;4976143;28;20030;-86
2022/10/01 08:29:55;;;;;;;11.10;9.88;;;14.50;99.90;;;;;;4958028;28;20127;-82
2022/10/01 08:32:24;;;;;;;12.73;11.38;;;14.60;99.90;;;;;;4958825;28;20054;-84
2022/10/01 08:34:54;;;;;;;13.35;11.45;;;14.60;99.90;;;;;;4973126;28;20132;-84
2022/10/01 08:37:33;;;;;;;14.25;10.90;;;14.60;99.90;;;;;;4974375;28;20118;-83
2022/10/01 08:40:00;;;;;;;11.95;10.77;;;14.60;99.90;;;;;;4974910;28;20057;-85
2022/10/01 08:43:05;;;;;;;12.93;11.63;;;14.60;99.90;;;;;;4974877;28;20018;-84
2022/10/01 08:45:54;;;;;;;12.15;10.90;;;14.60;99.90;;;;;;4972857;28;20062;-84
2022/10/01 08:48:27;;;;;;;12.70;11.30;;;14.60;99.90;;;;;;4975692;28;20070;-85
2022/10/01 08:51:12;;;;;;;12.88;11.63;;;14.50;99.90;;;;;;4984112;28;20035;-84
2022/10/01 08:54:06;;;;;;;11.88;10.10;;;14.60;99.90;;;;;;4976232;28;20034;-84
2022/10/01 08:56:46;;;;;;;14.10;12.60;;;14.80;99.90;;;;;;4971641;28;20046;-83
2022/10/01 08:59:36;;;;;;;13.23;11.68;;;15.10;99.90;;;;;;4974723;28;20027;-83
2022/10/01 09:02:19;;;;;;;11.90;10.48;;;15.40;99.90;;;;;;4979674;28;20055;-84
2022/10/01 09:04:46;;;;;;;11.75;10.55;;;15.70;99.90;;;;;;4975054;28;20078;-84
2022/10/01 09:07:30;;;;;;;10.88;8.80;;;15.90;99.90;;;;;;4989889;28;20027;-84
2022/10/01 09:10:24;;;;;;;9.02;7.25;;;15.60;99.90;;;;;;4998569;28;20034;-84
2022/10/01 09:13:09;;;;;;;8.15;6.95;;;15.30;99.90;;;;;;4999025;28;20070;-85
2022/10/01 09:16:09;;;;;;;8.55;6.40;;;15.10;99.90;;;;;;4997887;28;20471;-86
2022/10/01 09:19:09;;;;;;;7.63;6.47;;;15.10;99.90;;;;;;4963402;28;20092;-86
2022/10/01 09:21:50;;;;;;;8.63;7.22;;;15.60;99.90;;;;;;4976760;28;20054;-85
2022/10/01 09:24:25;;;;;;;9.27;6.65;;;16.10;99.90;;;;;;4975289;28;20519;-85
2022/10/01 09:26:52;;;;;;;7.22;5.13;;;16.10;99.90;;;;;;4974784;28;20078;-85
2022/10/01 09:29:43;;;;;;;5.97;4.50;;;15.80;99.90;;;;;;4975582;28;20027;-86
2022/10/01 09:32:17;;;;;;;6.93;4.07;;;15.50;99.90;;;;;;4957292;28;20047;-85
2022/10/01 09:34:44;;;;;;;5.90;3.75;;;15.20;99.90;;;;;;4988199;28;20434;-85
2022/10/01 09:37:31;;;;;;;5.40;3.53;;;15.00;99.90;;;;;;4974940;28;20376;-86
2022/10/01 09:40:22;;;;;;;4.53;2.92;;;14.90;99.90;;;;;;4971653;28;20049;-86
2022/10/01 09:42:47;;;;;;;4.95;2.45;;;15.00;99.90;;;;;;4974384;28;20029;-85
2022/10/01 09:45:17;;;;;;;5.50;2.85;;;15.10;99.90;;;;;;4972738;28;20622;-86
2022/10/01 09:47:54;;;;;;;5.45;2.78;;;15.30;99.90;;;;;;4973307;28;20094;-85
2022/10/01 09:50:42;;;;;;;5.95;2.30;;;15.60;99.90;;;;;;4974491;28;20058;-85
2022/10/01 09:53:17;;;;;;;4.78;1.60;;;15.60;99.90;;;;;;4972725;28;20054;-86
2022/10/01 09:55:47;;;;;;;6.07;2.45;;;15.80;99.90;;;;;;4985654;28;20039;-85
2022/10/01 09:58:25;;;;;;;6.10;1.90;;;16.10;99.90;;;;;;4974565;28;20129;-85
2022/10/01 10:00:53;;;;;;;3.58;1.75;;;15.90;99.90;;;;;;4972979;28;20482;-84
2022/10/01 10:03:37;;;;;;;4.53;1.73;;;15.50;99.90;;;;;;4973195;28;20054;-85
2022/10/01 10:06:05;;;;;;;7.50;1.52;;;15.40;99.90;;;;;;4971735;28;20034;-85
2022/10/01 10:08:39;;;;;;;4.53;1.50;;;16.00;99.90;;;;;;4972884;28;20031;-85
2022/10/01 10:11:09;;;;;;;4.90;1.52;;;17.00;99.90;;;;;;4974567;28;20022;-85
2022/10/01 10:14:16;;;;;;;6.15;1.25;;;18.40;99.90;;;;;;4974283;28;20042;-85
2022/10/01 10:16:46;;;;;;;7.43;1.50;;;19.80;99.90;;;;;;4934114;29;20031;-85
2022/10/01 10:19:23;;;;;;;5.82;1.90;;;20.30;99.90;;;;;;4971446;28;20039;-85
2022/10/01 10:21:56;;;;;;;5.97;1.48;;;20.60;99.90;;;;;;4987215;28;20035;-85
2022/10/01 10:24:30;;;;;;;2.72;0.90;;;21.00;99.90;;;;;;4970240;28;20118;-88
2022/10/01 10:27:02;;;;;;;5.28;1.30;;;21.70;99.90;;;;;;4972915;28;20086;-86
2022/10/01 10:29:34;;;;;;;5.85;1.50;;;21.90;99.90;;;;;;4969726;28;20027;-86
2022/10/01 10:32:23;;;;;;;6.03;1.50;;;22.10;99.90;;;;;;4969606;28;20050;-86
2022/10/01 10:34:55;;;;;;;6.15;1.52;;;22.10;99.90;;;;;;4960741;28;20394;-86
2022/10/01 10:37:45;;;;;;;6.28;1.42;;;22.00;99.90;;;;;;4966733;28;20092;-83
2022/10/01 10:40:31;;;;;;;5.30;1.23;;;21.90;99.90;;;;;;4968132;28;20481;-85
2022/10/01 10:42:58;;;;;;;4.93;1.08;;;22.20;99.90;;;;;;4966333;28;20027;-85
2022/10/01 10:45:37;;;;;;;3.83;1.00;;;22.60;99.90;;;;;;4950733;28;20058;-85
2022/10/01 10:48:10;;;;;;;7.05;1.33;;;22.10;99.90;;;;;;4981722;28;20026;-85
2022/10/01 10:50:38;;;;;;;5.82;1.40;;;21.50;99.90;;;;;;4965791;28;20037;-84
2022/10/01 10:53:20;;;;;;;6.50;1.35;;;21.00;99.90;;;;;;4967507;28;20413;-86
2022/10/01 10:56:02;;;;;;;6.35;1.90;;;20.60;99.90;;;;;;4967064;28;20035;-85
2022/10/01 10:58:30;;;;;;;6.32;1.20;;;20.80;99.90;;;;;;4966380;28;20082;-84
2022/10/01 11:01:11;;;;;;;6.28;1.27;;;21.40;99.90;;;;;;4967654;28;20046;-85
2022/10/01 11:03:43;;;;;;;6.50;1.00;;;21.60;99.90;;;;;;4965675;28;20110;-85
2022/10/01 11:06:13;;;;;;;6.25;1.27;;;22.20;99.90;;;;;;4982458;28;20311;-84
2022/10/01 11:08:40;;;;;;;4.68;0.95;;;23.20;99.90;;;;;;4971023;28;20471;-80
2022/10/01 11:11:31;;;;;;;7.25;1.40;;;23.80;99.90;;;;;;4983234;28;20031;-81
2022/10/01 11:14:28;;;;;;;5.78;1.25;;;22.90;99.90;;;;;;4993514;28;20011;-85
2022/10/01 11:17:23;;;;;;;4.32;0.98;;;21.50;99.90;;;;;;4971504;28;20043;-85
2022/10/01 11:20:13;;;;;;;5.05;1.42;;;20.10;99.90;;;;;;4965474;28;20030;-85
2022/10/01 11:22:52;;;;;;;5.05;1.20;;;19.20;99.90;;;;;;4969221;28;20125;-85
2022/10/01 11:25:30;;;;;;;6.05;1.20;;;20.10;99.90;;;;;;4973051;28;20117;-84
2022/10/01 11:28:05;;;;;;;5.20;1.55;;;21.30;99.90;;;;;;4984767;28;20090;-84
2022/10/01 11:30:34;;;;;;;5.22;1.15;;;22.10;99.90;;;;;;4973175;28;20026;-85
2022/10/01 11:33:28;;;;;;;7.47;1.50;;;22.90;99.90;;;;;;4954064;28;20046;-86
2022/10/01 11:36:27;;;;;;;5.43;1.10;;;23.30;99.90;;;;;;4982498;28;20051;-84
2022/10/01 11:39:04;;;;;;;5.28;1.10;;;23.90;99.90;;;;;;4969752;28;20129;-85
2022/10/01 11:41:56;;;;;;;9.82;1.42;;;24.20;99.90;;;;;;4968875;28;20077;-86
2022/10/01 11:44:40;;;;;;;5.53;1.40;;;24.20;99.90;;;;;;4982277;28;20105;-85
2022/10/01 11:47:15;;;;;;;8.07;1.27;;;24.20;99.90;;;;;;4981139;28;20023;-85
2022/10/01 11:50:02;;;;;;;4.50;0.93;;;24.20;99.90;;;;;;4955861;28;20039;-84
2022/10/01 11:52:36;;;;;;;5.72;1.15;;;24.30;99.90;;;;;;4984148;28;20027;-84
2022/10/01 12:01:04;;;;;;;5.63;1.10;;;23.90;99.90;;;;;;4970339;28;20089;-85
2022/10/01 12:03:37;;;;;;;5.13;1.35;;;24.30;99.90;;;;;;4970075;28;20617;-84
2022/10/01 12:06:13;;;;;;;7.65;1.20;;;24.40;99.90;;;;;;4970042;28;20110;-83
2022/10/01 12:08:47;;;;;;;5.90;1.27;;;24.60;99.90;;;;;;4965033;28;20050;-87
2022/10/01 12:11:16;;;;;;;4.82;1.15;;;24.50;99.90;;;;;;4969886;28;20031;-85
2022/10/01 12:13:54;;;;;;;3.70;0.90;;;24.50;99.90;;;;;;4968362;28;20026;-85
2022/10/01 12:16:22;;;;;;;6.10;1.15;;;25.10;99.90;;;;;;4967177;28;20034;-86
2022/10/01 12:19:00;;;;;;;6.28;1.45;;;25.60;99.90;;;;;;4968844;28;20047;-84
2022/10/01 12:21:30;;;;;;;6.93;1.65;;;25.50;99.90;;;;;;4965444;28;20469;-84
2022/10/01 12:24:12;;;;;;;6.15;1.48;;;25.60;99.90;;;;;;4982950;28;20424;-83
2022/10/01 12:26:43;;;;;;;6.90;1.20;;;25.40;99.90;;;;;;4951262;28;20035;-84
2022/10/01 12:29:22;;;;;;;3.50;0.98;;;25.00;99.90;;;;;;4969748;28;20202;-83
2022/10/01 12:31:58;;;;;;;5.25;1.23;;;24.90;99.90;;;;;;4979602;28;20020;-84
2022/10/01 12:35:07;;;;;;;4.75;1.40;;;25.10;99.90;;;;;;4984043;28;20030;-82
2022/10/01 12:37:59;;;;;;;3.88;0.85;;;25.50;99.90;;;;;;4970704;28;20030;-81
2022/10/01 12:40:29;;;;;;;5.13;1.20;;;24.30;99.90;;;;;;4983051;28;20035;-81
2022/10/01 12:43:07;;;;;;;4.50;1.10;;;23.00;99.90;;;;;;4970858;28;20085;-82
2022/10/01 12:45:42;;;;;;;4.65;0.70;;;21.90;99.90;;;;;;4972336;28;20054;-84
2022/10/01 12:48:19;;;;;;;4.43;0.85;;;21.50;99.90;;;;;;4971457;28;20043;-84
2022/10/01 12:51:03;;;;;;;3.15;0.80;;;21.60;99.90;;;;;;4986672;28;20110;-84
2022/10/01 12:53:43;;;;;;;4.78;0.95;;;21.40;99.90;;;;;;4973176;28;20094;-84
2022/10/01 12:56:36;;;;;;;4.00;0.82;;;21.00;99.90;;;;;;4988200;28;20039;-84
2022/10/01 12:59:21;;;;;;;4.78;1.02;;;20.70;99.90;;;;;;4966451;28;20031;-84
2022/10/01 13:02:19;;;;;;;4.28;1.00;;;20.10;99.90;;;;;;4967720;28;20442;-83
2022/10/01 13:04:45;;;;;;;4.10;0.82;;;19.70;99.90;;;;;;4966795;28;20114;-83
2022/10/01 13:07:10;;;;;;;4.28;0.95;;;19.90;99.90;;;;;;4976371;28;20135;-83
2022/10/01 13:09:53;;;;;;;6.70;1.20;;;21.20;99.90;;;;;;4991766;28;20041;-84
2022/10/01 13:12:37;;;;;;;3.97;1.00;;;22.60;99.90;;;;;;4993052;28;20023;-83
2022/10/01 13:15:10;;;;;;;4.53;1.05;;;23.10;99.90;;;;;;5002796;28;20362;-83
2022/10/01 13:17:47;;;;;;;6.70;1.17;;;23.50;99.90;;;;;;4967961;28;20034;-84
2022/10/01 13:20:40;;;;;;;3.05;0.90;;;24.50;99.90;;;;;;4968432;28;20399;-84